createdAt,value
2022-09-11T00:00:59.422Z,1.88
2022-09-11T00:05:00.938Z,4.72
2022-09-11T00:09:05.643Z,2.95
2022-09-11T00:13:07.943Z,4.50
2022-09-11T00:17:09.354Z,2.35
2022-09-11T00:21:10.741Z,2.92
2022-09-11T00:25:12.165Z,3.97
2022-09-11T00:29:13.624Z,1.60
2022-09-11T00:33:16.007Z,4.50
2022-09-11T00:37:17.419Z,4.38
2022-09-11T00:41:26.125Z,8.23
2022-09-11T00:45:28.209Z,3.97
2022-09-11T00:49:34.786Z,2.55
2022-09-11T00:53:37.303Z,4.85
2022-09-11T00:57:42.488Z,3.47
2022-09-11T01:01:43.945Z,3.53
2022-09-11T01:05:46.152Z,2.25
2022-09-11T01:09:47.794Z,2.60
2022-09-11T01:14:02.139Z,5.95
2022-09-11T01:18:13.255Z,2.58
2022-09-11T01:22:31.421Z,4.55
2022-09-11T01:27:03.027Z,4.95
2022-09-11T01:31:11.189Z,3.13
2022-09-11T01:35:34.640Z,4.55
2022-09-11T01:39:44.968Z,4.35
2022-09-11T01:43:56.890Z,4.70
2022-09-11T01:47:59.962Z,3.35
2022-09-11T01:52:05.552Z,5.78
2022-09-11T01:56:10.559Z,3.83
2022-09-11T02:00:14.502Z,2.40
2022-09-11T02:04:20.099Z,4.90
2022-09-11T02:08:31.370Z,5.32
2022-09-11T02:12:45.072Z,4.80
2022-09-11T02:16:58.469Z,3.95
2022-09-11T02:20:59.870Z,2.05
2022-09-11T02:25:03.026Z,3.72
2022-09-11T02:29:05.178Z,2.58
2022-09-11T02:33:06.805Z,1.88
2022-09-11T02:37:28.296Z,5.30
2022-09-11T02:41:42.023Z,1.92
2022-09-11T02:45:54.501Z,1.85
2022-09-11T02:50:09.269Z,3.83
2022-09-11T02:54:21.835Z,3.60
2022-09-11T02:58:27.112Z,7.38
2022-09-11T03:02:30.644Z,2.88
2022-09-11T03:06:32.846Z,4.20
2022-09-11T03:10:34.723Z,5.93
2022-09-11T03:14:36.768Z,2.80
2022-09-11T03:18:38.413Z,5.55
2022-09-11T03:22:39.777Z,7.45
2022-09-11T03:26:41.528Z,2.50
2022-09-11T03:30:42.915Z,6.18
2022-09-11T03:34:44.394Z,2.90
2022-09-11T03:38:45.821Z,4.72
2022-09-11T03:42:47.248Z,5.43
2022-09-11T03:46:48.892Z,5.63
2022-09-11T03:50:50.403Z,4.22
2022-09-11T03:54:51.840Z,4.22
2022-09-11T03:58:57.456Z,5.05
2022-09-11T04:02:59.399Z,7.45
2022-09-11T04:07:00.891Z,7.10
2022-09-11T04:11:06.716Z,4.95
2022-09-11T04:15:08.566Z,3.50
2022-09-11T04:19:11.499Z,3.72
2022-09-11T04:23:12.890Z,9.45
2022-09-11T04:27:14.364Z,5.10
2022-09-11T04:31:16.965Z,4.80
2022-09-11T04:35:19.179Z,4.45
2022-09-11T04:39:20.552Z,3.90
2022-09-11T04:43:22.082Z,4.93
2022-09-11T04:47:23.524Z,5.97
2022-09-11T04:51:29.195Z,4.75
2022-09-11T04:55:30.727Z,4.90
2022-09-11T04:59:32.198Z,9.43
2022-09-11T05:03:33.746Z,7.50
2022-09-11T05:07:36.085Z,5.90
2022-09-11T05:11:41.049Z,5.47
2022-09-11T05:15:43.752Z,5.80
2022-09-11T05:19:45.216Z,6.95
2022-09-11T05:23:51.621Z,7.57
2022-09-11T05:27:53.079Z,6.63
2022-09-11T05:32:00.283Z,7.03
2022-09-11T05:36:05.180Z,5.35
2022-09-11T05:40:07.248Z,7.13
2022-09-11T05:44:08.642Z,5.88
2022-09-11T05:48:10.365Z,6.05
2022-09-11T05:52:14.176Z,6.63
2022-09-11T05:56:20.674Z,8.07
2022-09-11T06:00:22.095Z,7.97
2022-09-11T06:04:23.477Z,5.93
2022-09-11T06:08:24.842Z,4.57
2022-09-11T06:12:28.321Z,6.65
2022-09-11T06:16:31.692Z,7.90
2022-09-11T06:20:33.120Z,7.55
2022-09-11T06:24:34.593Z,6.38
2022-09-11T06:28:39.918Z,5.65
2022-09-11T06:33:09.418Z,5.80
2022-09-11T06:37:10.791Z,8.60
2022-09-11T06:41:16.310Z,7.80
2022-09-11T06:45:17.854Z,8.90
2022-09-11T06:49:22.377Z,7.00
2022-09-11T06:53:33.091Z,6.85
2022-09-11T06:57:39.863Z,7.07
2022-09-11T07:01:44.116Z,6.10
2022-09-11T07:05:50.376Z,7.60
2022-09-11T07:09:53.474Z,10.60
2022-09-11T07:13:55.145Z,7.80
2022-09-11T07:17:59.971Z,6.43
2022-09-11T07:27:39.550Z,5.95
2022-09-11T07:37:11.386Z,8.15
2022-09-11T07:41:14.553Z,7.60
2022-09-11T07:45:20.882Z,8.27
2022-09-11T07:49:24.080Z,8.27
2022-09-11T07:53:34.821Z,8.18
2022-09-11T07:57:36.342Z,6.45
2022-09-11T08:01:37.783Z,7.22
2022-09-11T08:05:39.238Z,10.52
2022-09-11T08:09:40.628Z,8.05
2022-09-11T08:13:43.083Z,11.23
2022-09-11T08:17:44.659Z,17.63
2022-09-11T08:21:47.814Z,9.70
2022-09-11T08:25:51.038Z,9.60
2022-09-11T08:29:54.225Z,12.25
2022-09-11T08:33:58.884Z,10.23
2022-09-11T08:38:00.392Z,9.85
2022-09-11T08:42:11.192Z,14.77
2022-09-11T08:46:12.645Z,11.20
2022-09-11T08:50:23.351Z,9.63
2022-09-11T08:54:27.663Z,11.23
2022-09-11T08:58:52.542Z,11.02
2022-09-11T09:03:20.802Z,10.35
2022-09-11T09:07:25.022Z,10.23
2022-09-11T09:11:56.821Z,8.65
2022-09-11T09:16:07.425Z,7.95
2022-09-11T09:20:13.854Z,8.95
2022-09-11T09:24:21.289Z,7.55
2022-09-11T09:28:44.594Z,8.35
2022-09-11T09:32:51.982Z,9.02
2022-09-11T09:37:08.272Z,9.95
2022-09-11T09:41:21.334Z,7.80
2022-09-11T09:45:55.191Z,6.68
2022-09-11T09:49:58.373Z,13.30
2022-09-11T09:54:03.189Z,7.30
2022-09-11T09:58:04.664Z,9.20
2022-09-11T10:02:06.316Z,6.90
2022-09-11T10:06:10.107Z,11.02
2022-09-11T10:10:44.003Z,8.80
2022-09-11T10:15:00.248Z,9.40
2022-09-11T10:19:01.761Z,7.53
2022-09-11T10:23:25.816Z,12.38
2022-09-11T10:27:29.116Z,10.98
2022-09-11T10:31:30.684Z,10.02
2022-09-11T10:35:34.142Z,9.68
2022-09-11T10:40:08.976Z,7.90
2022-09-11T10:44:15.744Z,11.98
2022-09-11T10:48:22.463Z,8.60
2022-09-11T10:52:26.382Z,14.30
2022-09-11T10:56:31.543Z,9.68
2022-09-11T11:00:35.974Z,8.18
2022-09-11T11:04:37.392Z,10.23
2022-09-11T11:09:01.786Z,7.75
2022-09-11T11:13:36.086Z,7.30
2022-09-11T11:18:14.164Z,8.32
2022-09-11T11:22:34.471Z,7.55
2022-09-11T11:26:45.029Z,8.95
2022-09-11T11:30:55.746Z,7.20
2022-09-11T11:35:19.263Z,9.15
2022-09-11T11:39:40.201Z,8.63
2022-09-11T11:43:43.201Z,7.22
2022-09-11T11:47:47.341Z,7.93
2022-09-11T11:52:00.736Z,9.98
2022-09-11T11:56:14.885Z,7.68
2022-09-11T12:00:17.706Z,8.32
2022-09-11T12:04:38.163Z,7.85
2022-09-11T12:08:46.104Z,7.20
2022-09-11T12:12:53.136Z,8.63
2022-09-11T12:16:56.211Z,7.38
2022-09-11T12:21:25.426Z,5.88
2022-09-11T12:25:32.953Z,6.30
2022-09-11T12:29:40.295Z,7.18
2022-09-11T12:33:41.813Z,9.02
2022-09-11T12:37:51.026Z,5.20
2022-09-11T12:42:23.967Z,6.55
2022-09-11T12:46:28.225Z,6.32
2022-09-11T12:50:29.677Z,6.18
2022-09-11T12:54:39.003Z,6.00
2022-09-11T12:58:42.163Z,5.82
2022-09-11T13:02:46.639Z,5.35
2022-09-11T13:06:56.709Z,6.53
2022-09-11T13:11:36.616Z,5.82
2022-09-11T13:15:47.468Z,5.70
2022-09-11T13:19:48.898Z,4.70
2022-09-11T13:23:50.982Z,6.63
2022-09-11T13:28:06.886Z,9.63
2022-09-11T13:32:16.841Z,6.38
2022-09-11T13:36:39.234Z,5.45
2022-09-11T13:40:43.828Z,6.97
2022-09-11T13:44:52.099Z,8.25
2022-09-11T13:49:21.611Z,5.53
2022-09-11T13:58:38.789Z,6.13
2022-09-11T14:08:29.110Z,6.22
2022-09-11T14:13:26.783Z,5.18
2022-09-11T14:17:31.507Z,4.85
2022-09-11T14:22:30.433Z,4.65
2022-09-11T14:32:36.309Z,5.88
2022-09-11T14:36:43.187Z,5.00
2022-09-11T14:40:58.830Z,5.50
2022-09-11T14:45:13.280Z,5.50
2022-09-11T14:49:20.143Z,6.63
2022-09-11T14:53:38.035Z,4.97
2022-09-11T14:57:42.639Z,8.25
2022-09-11T15:01:47.973Z,4.72
2022-09-11T15:05:54.721Z,4.28
2022-09-11T15:09:56.387Z,5.60
2022-09-11T15:14:14.808Z,5.53
2022-09-11T15:18:24.681Z,4.90
2022-09-11T15:26:55.114Z,6.28
2022-09-11T15:31:12.597Z,5.50
2022-09-11T15:39:34.213Z,5.18
2022-09-11T15:43:51.936Z,6.43
2022-09-11T15:47:53.371Z,5.80
2022-09-11T15:51:55.457Z,5.28
2022-09-11T15:56:04.172Z,5.93
2022-09-11T16:00:12.926Z,5.70
2022-09-11T16:04:18.976Z,4.53
2022-09-11T16:08:22.807Z,7.75
2022-09-11T16:12:25.535Z,6.57
2022-09-11T16:16:27.198Z,6.50
2022-09-11T16:20:28.629Z,5.38
2022-09-11T16:24:31.652Z,6.10
2022-09-11T16:28:34.569Z,5.50
2022-09-11T16:32:39.157Z,6.82
2022-09-11T16:41:07.795Z,5.75
2022-09-11T16:45:10.222Z,7.78
2022-09-11T16:49:16.544Z,5.10
2022-09-11T16:53:18.038Z,6.47
2022-09-11T16:57:20.286Z,5.72
2022-09-11T17:01:24.255Z,7.03
2022-09-11T17:05:26.556Z,4.80
2022-09-11T17:09:28.084Z,5.60
2022-09-11T17:13:29.524Z,5.53
2022-09-11T17:17:31.347Z,6.93
2022-09-11T17:21:37.125Z,6.20
2022-09-11T17:25:43.376Z,7.22
2022-09-11T17:29:45.114Z,10.38
2022-09-11T17:33:47.348Z,6.60
2022-09-11T17:37:48.865Z,6.68
2022-09-11T17:41:50.472Z,8.60
2022-09-11T17:46:17.758Z,8.63
2022-09-11T17:55:39.297Z,9.25
2022-09-11T18:11:19.329Z,9.02
2022-09-11T18:19:59.394Z,7.72
2022-09-11T18:38:38.169Z,7.63
2022-09-11T18:47:19.298Z,9.38
2022-09-11T18:51:57.218Z,12.25
2022-09-11T19:06:09.046Z,7.97
2022-09-11T19:10:11.715Z,11.52
2022-09-11T19:14:13.407Z,9.68
2022-09-11T19:18:14.924Z,8.35
2022-09-11T19:22:16.348Z,7.50
2022-09-11T19:26:27.813Z,10.35
2022-09-11T19:30:29.239Z,9.30
2022-09-11T19:34:31.129Z,9.82
2022-09-11T19:38:36.576Z,9.52
2022-09-11T19:42:37.950Z,9.57
2022-09-11T19:46:40.973Z,9.50
2022-09-11T19:50:43.872Z,11.40
2022-09-11T19:54:45.341Z,11.27
2022-09-11T19:58:46.769Z,10.63
2022-09-11T20:02:56.754Z,9.18
2022-09-11T20:07:11.110Z,8.27
2022-09-11T20:11:35.541Z,11.52
2022-09-11T20:15:56.217Z,8.75
2022-09-11T20:20:10.441Z,8.82
2022-09-11T20:24:15.113Z,9.02
2022-09-11T20:28:23.280Z,12.00
2022-09-11T20:32:28.734Z,11.20
2022-09-11T20:36:39.636Z,9.23
2022-09-11T20:40:53.094Z,9.43
2022-09-11T20:44:55.028Z,11.02
2022-09-11T20:49:08.890Z,9.55
2022-09-11T20:53:10.735Z,10.23
2022-09-11T20:57:18.214Z,10.73
2022-09-11T21:01:49.154Z,10.02
2022-09-11T21:06:00.492Z,10.70
2022-09-11T21:10:02.230Z,9.90
2022-09-11T21:14:04.849Z,10.10
2022-09-11T21:18:08.575Z,9.40
2022-09-11T21:22:12.188Z,8.95
2022-09-11T21:26:15.547Z,12.27
2022-09-11T21:34:32.310Z,13.60
2022-09-11T21:38:33.713Z,10.82
2022-09-11T21:42:39.222Z,11.68
2022-09-11T21:46:43.038Z,8.85
2022-09-11T21:50:48.632Z,9.73
2022-09-11T21:54:59.447Z,9.52
2022-09-11T21:59:01.136Z,9.73
2022-09-11T22:03:03.198Z,14.77
2022-09-11T22:07:05.579Z,9.43
2022-09-11T22:11:09.293Z,12.05
2022-09-11T22:15:13.709Z,10.27
2022-09-11T22:19:19.419Z,10.95
2022-09-11T22:23:23.976Z,10.93
2022-09-11T22:27:27.901Z,10.27
2022-09-11T22:31:29.434Z,8.25
2022-09-11T22:35:34.244Z,8.32
2022-09-11T22:39:41.527Z,10.68
2022-09-11T22:43:45.795Z,10.10
2022-09-11T22:47:47.207Z,10.45
2022-09-11T22:51:49.629Z,10.35
2022-09-11T22:55:54.265Z,9.80
2022-09-11T23:00:00.421Z,10.07
2022-09-11T23:04:02.167Z,9.38
2022-09-11T23:08:07.573Z,8.13
2022-09-11T23:12:09.390Z,8.32
2022-09-11T23:16:13.259Z,8.77
2022-09-11T23:20:14.918Z,9.27
2022-09-11T23:24:16.582Z,10.00
2022-09-11T23:28:20.008Z,8.35
2022-09-11T23:32:24.597Z,8.65
2022-09-11T23:36:26.804Z,9.57
2022-09-11T23:40:33.217Z,8.75
2022-09-11T23:44:36.148Z,11.50
2022-09-11T23:48:37.670Z,9.07
2022-09-11T23:52:42.650Z,8.00
2022-09-11T23:56:44.520Z,10.52
